Overview Statistics Trail Chart Weather Telemetry Raw packets
 

This is the latest recevied telemetry packets stored in our database for station/object OE5PYB-11. If no packets are shown the sender has not sent any telemetry packets the latest 10 day(s).

Telemetry packets is used to share measurements like repeteater parameters, battery voltage, radiation readings (or any other measurements).

<< 1 2 3 4 >>
Time Press* Temp.in* Hum* QNH* Temp.out*
1788566417 984 hPa 30.8 C deg 42.8 % 1012.3 hPa 0 C deg
1788564587 983.8 hPa 30.9 C deg 42.6 % 1012 hPa 0 C deg
1788562756 983.7 hPa 30.9 C deg 42.7 % 1012 hPa 0 C deg
1788560926 983.6 hPa 30.8 C deg 42.7 % 1011.8 hPa 0 C deg
1788559096 983.3 hPa 30.7 C deg 42.7 % 1011.6 hPa 0 C deg
1788557266 983.3 hPa 30.7 C deg 42.8 % 1011.5 hPa 0 C deg
1788555435 983.2 hPa 30.6 C deg 42.7 % 1011.4 hPa 0 C deg
1788553605 983 hPa 30.9 C deg 42.2 % 1011.3 hPa 0 C deg
1788551776 982.9 hPa 31 C deg 41.8 % 1011.1 hPa 0 C deg
1788549946 982.8 hPa 31.2 C deg 41.6 % 1011 hPa 0 C deg
1788548116 982.6 hPa 31.9 C deg 40.8 % 1010.7 hPa 0 C deg
1788546286 982.2 hPa 31.8 C deg 40.9 % 1010.3 hPa 0 C deg
1788544455 981.8 hPa 31 C deg 42 % 1010 hPa 0 C deg
1788542625 981.8 hPa 31.1 C deg 41.8 % 1010 hPa 0 C deg
1788540795 981.9 hPa 31.1 C deg 41.6 % 1010.1 hPa 0 C deg
1788538965 982.2 hPa 31 C deg 41.9 % 1010.4 hPa 0 C deg
1788537135 982.6 hPa 31 C deg 42.8 % 1010.8 hPa 0 C deg
1788535305 983 hPa 30.9 C deg 41.3 % 1011.2 hPa 0 C deg
1788533475 983.3 hPa 30.8 C deg 41.2 % 1011.5 hPa 0 C deg
1788531645 983.9 hPa 30.8 C deg 42.1 % 1012.1 hPa 0 C deg
1788529815 984.3 hPa 30.6 C deg 42.3 % 1012.5 hPa 0 C deg
1788527984 984.6 hPa 30.6 C deg 41.5 % 1012.9 hPa 0 C deg
1788526154 985.2 hPa 30.6 C deg 41.7 % 1013.5 hPa 0 C deg
1788524324 985.8 hPa 30.5 C deg 41.6 % 1014.1 hPa 0 C deg
1788522494 986.3 hPa 30.4 C deg 43 % 1014.7 hPa 0 C deg
*Used Equation Coefficients:
Press: 0, 1, 0
Temp.in: 0, 1, 0
Hum: 0, 1, 0
QNH: 0, 1, 0
Temp.out: 0, 1, 0

  • The parameter names for the analog channels will be Value1, Value2, Value3 (up to Value5) if station has not sent a PARAM-packet that specifies the parameter names for each analog channel.
  • Each analog value is a decimal number between 000 and 255 (according to APRS specifications). The receiver use the telemetry equation coefficientsto to restore the original sensor values. If no EQNS-packet with equation coefficients is sent we will show the values as is (this corresponds to the equation coefficients a=0, b=1 and c=0).
    The sent equation coefficients is used in the equation: a * value2 + b * value + c.
  • The units for the analog values will not be shown if station has not sent a UNIT-packet specifying what unit's to use.
  • The parameter names for the digital bits will be Bit1, Bit2, Bit3 (up to Bit8) if station has not sent a PARAM-packet that specifies the parameter names for each digital bit.
  • All bit labels will be named "On" if station has not sent a UNIT-packet that specifies the label of each bit.
  • A bit is considered to be On when the bit is 1 if station has not sent a BITS-packet that specifies another "Bit sense" (a BITS-packet specify the state of the bits that match the BIT labels)